Time;durP1;ratioP1;P1;durP2;ratioP2;P2;SDS_P1;SDS_P2;PMS_P1;PMS_P2;Temp;Humidity;BMP_temperature;BMP_pressure;BME280_temperature;BME280_humidity;BME280_pressure;Samples;Min_cycle;Max_cycle;Signal;HPM_P1;HPM_P2
2021/05/01 00:01:20;;;;;;;39.10;27.80;;;7.60;99.90;;;;;;4945784;29;20234;-82
2021/05/01 00:03:46;;;;;;;37.75;29.02;;;7.60;99.90;;;;;;4946036;29;20782;-83
2021/05/01 00:06:12;;;;;;;40.03;30.75;;;7.60;99.90;;;;;;4945999;29;20214;-83
2021/05/01 00:08:38;;;;;;;36.03;26.20;;;7.60;99.90;;;;;;4954090;28;20186;-80
2021/05/01 00:11:05;;;;;;;38.33;30.20;;;7.60;99.90;;;;;;4961353;28;20432;-80
2021/05/01 00:13:35;;;;;;;36.08;27.52;;;7.60;99.90;;;;;;4960912;28;20213;-81
2021/05/01 00:16:03;;;;;;;36.85;27.95;;;7.60;99.90;;;;;;4955439;29;20237;-84
2021/05/01 00:18:30;;;;;;;39.05;30.35;;;7.60;99.90;;;;;;4946413;29;20213;-83
2021/05/01 00:20:56;;;;;;;40.20;30.73;;;7.50;99.90;;;;;;4946436;29;20237;-83
2021/05/01 00:23:23;;;;;;;40.55;29.58;;;7.60;99.90;;;;;;4945757;29;20225;-84
2021/05/01 00:25:49;;;;;;;38.85;30.40;;;7.50;99.90;;;;;;4945627;29;20216;-83
2021/05/01 00:28:16;;;;;;;38.40;29.70;;;7.50;99.90;;;;;;4945847;29;20210;-83
2021/05/01 00:30:43;;;;;;;43.80;31.05;;;7.50;99.90;;;;;;4945843;29;20213;-83
2021/05/01 00:33:10;;;;;;;43.97;31.38;;;7.60;99.90;;;;;;4945264;29;20233;-84
2021/05/01 00:35:36;;;;;;;39.08;32.25;;;7.60;99.90;;;;;;4944692;29;20213;-83
2021/05/01 00:38:03;;;;;;;39.60;28.88;;;7.60;99.90;;;;;;4945004;29;20216;-83
2021/05/01 00:40:30;;;;;;;39.78;31.58;;;7.70;99.90;;;;;;4945528;29;20206;-83
2021/05/01 00:42:57;;;;;;;39.25;29.40;;;7.60;99.90;;;;;;4944430;29;20235;-83
2021/05/01 00:45:24;;;;;;;47.97;32.67;;;7.60;99.90;;;;;;4945622;29;20214;-82
2021/05/01 00:47:51;;;;;;;43.78;33.08;;;7.60;99.90;;;;;;4945045;29;20205;-84
2021/05/01 00:50:17;;;;;;;40.25;32.05;;;7.60;99.90;;;;;;4944815;29;20202;-84
2021/05/01 00:52:43;;;;;;;41.63;34.83;;;7.50;99.90;;;;;;4944466;29;20482;-84
2021/05/01 00:55:11;;;;;;;50.35;35.50;;;7.50;99.90;;;;;;4945081;29;20206;-83
2021/05/01 00:57:37;;;;;;;48.47;37.65;;;7.40;99.90;;;;;;4945464;29;20205;-83
2021/05/01 01:00:05;;;;;;;46.65;36.72;;;7.30;99.90;;;;;;4944751;29;20205;-82
2021/05/01 01:02:32;;;;;;;47.80;32.40;;;7.40;99.90;;;;;;4944638;29;20233;-83
2021/05/01 01:04:59;;;;;;;51.25;34.53;;;7.40;99.90;;;;;;4945070;29;20671;-84
2021/05/01 01:07:26;;;;;;;49.85;35.78;;;7.50;99.90;;;;;;4944295;29;20260;-84
2021/05/01 01:09:53;;;;;;;42.40;32.15;;;7.50;99.90;;;;;;4945028;29;20210;-83
2021/05/01 01:12:19;;;;;;;42.20;32.63;;;7.50;99.90;;;;;;4944706;29;20206;-83
2021/05/01 01:14:46;;;;;;;51.83;32.40;;;7.50;99.90;;;;;;4944752;29;20206;-84
2021/05/01 01:17:12;;;;;;;41.70;31.48;;;7.50;99.90;;;;;;4944296;29;20575;-82
2021/05/01 01:19:39;;;;;;;48.25;32.88;;;7.50;99.90;;;;;;4944258;29;20667;-84
2021/05/01 01:22:15;;;;;;;51.90;34.40;;;7.50;99.90;;;;;;4944568;29;20237;-83
2021/05/01 01:24:41;;;;;;;41.95;31.45;;;7.60;99.90;;;;;;4944930;29;20213;-83
2021/05/01 01:27:08;;;;;;;36.08;28.40;;;7.60;99.90;;;;;;4944277;29;20280;-84
2021/05/01 01:29:37;;;;;;;43.60;31.75;;;7.60;99.90;;;;;;4944252;29;20218;-84
2021/05/01 01:32:04;;;;;;;43.20;32.50;;;7.70;99.90;;;;;;4943965;29;20243;-83
2021/05/01 01:34:31;;;;;;;39.25;30.30;;;7.70;99.90;;;;;;4944436;29;20281;-84
2021/05/01 01:36:57;;;;;;;46.13;33.50;;;7.70;99.90;;;;;;4944401;29;20216;-83
2021/05/01 01:39:24;;;;;;;43.40;31.70;;;7.80;99.90;;;;;;4944790;29;20205;-83
2021/05/01 01:41:50;;;;;;;42.20;32.53;;;7.80;99.90;;;;;;4943911;29;20225;-84
2021/05/01 01:44:16;;;;;;;47.25;32.40;;;7.80;99.90;;;;;;4944035;29;20242;-82
2021/05/01 01:46:43;;;;;;;42.88;31.27;;;7.80;99.90;;;;;;4944159;29;20211;-83
2021/05/01 01:49:09;;;;;;;43.40;32.95;;;7.90;99.90;;;;;;4944648;29;20213;-83
2021/05/01 01:51:35;;;;;;;44.65;32.42;;;7.90;99.90;;;;;;4944260;29;20209;-83
2021/05/01 01:54:01;;;;;;;48.70;33.47;;;7.90;99.90;;;;;;4944166;29;20234;-84
2021/05/01 01:56:28;;;;;;;44.58;33.20;;;7.90;99.90;;;;;;4945816;29;20217;-84
2021/05/01 01:58:55;;;;;;;44.63;33.70;;;7.90;99.90;;;;;;4947291;29;20703;-82
2021/05/01 02:01:22;;;;;;;43.92;31.10;;;7.90;99.90;;;;;;4947993;29;20237;-83
2021/05/01 02:03:48;;;;;;;41.03;31.45;;;7.90;99.90;;;;;;4947706;29;20654;-84
2021/05/01 02:06:16;;;;;;;41.50;30.42;;;7.90;99.90;;;;;;4947377;29;20214;-83
2021/05/01 02:08:42;;;;;;;40.80;28.63;;;7.90;99.90;;;;;;4947250;29;20291;-84
2021/05/01 02:11:08;;;;;;;42.63;32.75;;;7.90;99.90;;;;;;4947937;29;20206;-84
2021/05/01 02:13:36;;;;;;;44.88;33.78;;;8.00;99.90;;;;;;4946708;29;20288;-83
2021/05/01 02:16:02;;;;;;;38.22;29.73;;;8.00;99.90;;;;;;4947884;29;20230;-83
2021/05/01 02:18:30;;;;;;;44.92;31.70;;;8.00;99.90;;;;;;4947554;29;20209;-83
2021/05/01 02:20:56;;;;;;;44.10;34.03;;;8.00;99.90;;;;;;4947450;29;20213;-82
2021/05/01 02:23:22;;;;;;;47.15;34.38;;;8.00;99.90;;;;;;4947522;29;20237;-84
2021/05/01 02:25:48;;;;;;;45.45;33.45;;;8.00;99.90;;;;;;4947509;29;20210;-84
2021/05/01 02:28:16;;;;;;;44.83;32.03;;;8.00;99.90;;;;;;4946942;29;20214;-83
2021/05/01 02:30:43;;;;;;;40.15;32.83;;;8.00;99.90;;;;;;4946754;29;20206;-83
2021/05/01 02:33:09;;;;;;;45.03;31.65;;;8.00;99.90;;;;;;4946482;29;20241;-84
2021/05/01 02:35:38;;;;;;;44.67;33.70;;;8.10;99.90;;;;;;4947205;29;20225;-84
2021/05/01 02:38:04;;;;;;;46.58;35.05;;;8.10;99.90;;;;;;4947669;29;20214;-83
2021/05/01 02:40:31;;;;;;;41.78;33.83;;;8.10;99.90;;;;;;4946656;29;20211;-83
2021/05/01 02:42:58;;;;;;;41.22;34.10;;;8.10;99.90;;;;;;4946598;29;20238;-84
2021/05/01 02:45:25;;;;;;;44.67;31.88;;;8.10;99.90;;;;;;4947338;29;20210;-84
2021/05/01 02:47:52;;;;;;;47.38;33.47;;;8.10;99.90;;;;;;4946813;29;20205;-83
2021/05/01 02:50:19;;;;;;;47.55;33.03;;;8.20;99.90;;;;;;4946798;29;20702;-83
2021/05/01 02:52:46;;;;;;;47.83;33.80;;;8.20;99.90;;;;;;4945952;29;20529;-84
2021/05/01 02:55:14;;;;;;;45.97;33.08;;;8.20;99.90;;;;;;4946970;29;20257;-82
2021/05/01 02:57:40;;;;;;;40.63;29.75;;;8.20;99.90;;;;;;4946766;29;20214;-83
2021/05/01 03:00:09;;;;;;;43.88;32.05;;;8.20;99.90;;;;;;4945641;29;20214;-84
2021/05/01 03:02:36;;;;;;;44.78;31.80;;;8.20;99.90;;;;;;4945819;29;20282;-84
2021/05/01 03:05:03;;;;;;;38.45;31.48;;;8.20;99.90;;;;;;4947084;29;20211;-84
2021/05/01 03:07:29;;;;;;;46.83;35.25;;;8.20;99.90;;;;;;4944896;29;20213;-83
2021/05/01 03:09:55;;;;;;;45.03;34.03;;;8.10;99.90;;;;;;4945487;29;20213;-83
2021/05/01 03:12:22;;;;;;;45.88;35.22;;;8.10;99.90;;;;;;4945234;29;20214;-84
2021/05/01 03:14:48;;;;;;;47.33;35.65;;;8.20;99.90;;;;;;4945277;29;20217;-84
2021/05/01 03:17:15;;;;;;;55.65;38.00;;;8.20;99.90;;;;;;4945345;29;20220;-83
2021/05/01 03:19:41;;;;;;;48.22;34.83;;;8.20;99.90;;;;;;4945431;29;20214;-84
2021/05/01 03:22:08;;;;;;;43.67;34.03;;;8.20;99.90;;;;;;4944937;29;20233;-84
2021/05/01 03:24:36;;;;;;;50.45;35.80;;;8.20;99.90;;;;;;4945442;29;20278;-83
2021/05/01 03:27:02;;;;;;;47.90;32.28;;;8.20;99.90;;;;;;4945546;29;20218;-84
2021/05/01 03:29:28;;;;;;;51.40;34.47;;;8.30;99.90;;;;;;4945222;29;20568;-84
2021/05/01 03:31:54;;;;;;;46.63;33.28;;;8.30;99.90;;;;;;4945005;29;20285;-84
2021/05/01 03:34:20;;;;;;;43.15;31.73;;;8.30;99.90;;;;;;4944921;29;20245;-82
2021/05/01 03:36:47;;;;;;;42.00;26.17;;;8.30;99.90;;;;;;4944800;29;20207;-83
2021/05/01 03:39:15;;;;;;;41.50;27.52;;;8.20;99.90;;;;;;4945809;29;20591;-83
2021/05/01 03:41:42;;;;;;;46.75;27.77;;;8.20;99.90;;;;;;4945851;29;20230;-84
2021/05/01 03:44:08;;;;;;;45.92;29.17;;;8.10;99.90;;;;;;4944860;29;20248;-83
2021/05/01 03:46:35;;;;;;;45.42;30.35;;;8.10;99.90;;;;;;4944807;29;20213;-84
2021/05/01 03:49:01;;;;;;;41.42;28.92;;;8.00;99.90;;;;;;4944965;29;20209;-84
2021/05/01 03:51:28;;;;;;;43.50;29.50;;;7.90;99.90;;;;;;4944349;29;20206;-84
2021/05/01 03:53:54;;;;;;;38.75;29.23;;;7.90;99.90;;;;;;4944732;29;20226;-84
2021/05/01 03:56:21;;;;;;;44.63;29.77;;;8.00;99.90;;;;;;4944983;29;20359;-84
2021/05/01 03:58:48;;;;;;;49.78;31.23;;;8.00;99.90;;;;;;4944730;29;20217;-84
2021/05/01 04:01:15;;;;;;;42.72;29.77;;;8.00;99.90;;;;;;4944397;29;20258;-84
2021/05/01 04:03:41;;;;;;;44.38;30.42;;;8.00;99.90;;;;;;4944062;29;20458;-83
2021/05/01 04:06:07;;;;;;;47.95;33.13;;;8.10;99.90;;;;;;4944634;29;20210;-84
2021/05/01 04:08:33;;;;;;;52.65;36.70;;;8.10;99.90;;;;;;4944546;29;20212;-83
2021/05/01 04:11:00;;;;;;;45.75;34.60;;;8.20;99.90;;;;;;4944886;29;20205;-83
2021/05/01 04:13:27;;;;;;;52.75;36.17;;;8.20;99.90;;;;;;4944751;29;20241;-84
2021/05/01 04:15:53;;;;;;;43.53;33.58;;;8.20;99.90;;;;;;4944088;29;20209;-82
2021/05/01 04:18:21;;;;;;;54.67;36.95;;;8.20;99.90;;;;;;4943543;29;20207;-84
2021/05/01 04:20:47;;;;;;;50.00;35.60;;;8.20;99.90;;;;;;4944619;29;20221;-84
2021/05/01 04:23:13;;;;;;;51.65;36.80;;;8.20;99.90;;;;;;4943666;29;20249;-83
2021/05/01 04:25:40;;;;;;;46.28;35.75;;;8.20;99.90;;;;;;4943583;29;20206;-82
2021/05/01 04:28:06;;;;;;;54.47;37.75;;;8.20;99.90;;;;;;4943524;29;20671;-83
2021/05/01 04:30:33;;;;;;;51.30;36.33;;;8.30;99.90;;;;;;4943650;29;20648;-83
2021/05/01 04:33:00;;;;;;;55.25;35.65;;;8.30;99.90;;;;;;4942805;29;20240;-82
2021/05/01 04:35:26;;;;;;;44.90;33.47;;;8.40;99.90;;;;;;4943237;29;20202;-84
2021/05/01 04:37:52;;;;;;;47.40;36.13;;;8.40;99.90;;;;;;4943587;29;20210;-84
2021/05/01 04:40:19;;;;;;;53.20;37.83;;;8.40;99.90;;;;;;4943900;29;20216;-83
2021/05/01 04:42:48;;;;;;;48.63;34.60;;;8.40;99.90;;;;;;4943819;29;20234;-84
2021/05/01 04:45:15;;;;;;;49.75;35.05;;;8.50;99.90;;;;;;4943583;29;20214;-82
2021/05/01 04:47:43;;;;;;;43.70;33.97;;;8.50;99.90;;;;;;4943625;29;20632;-84
2021/05/01 04:50:10;;;;;;;44.33;32.97;;;8.50;99.90;;;;;;4943752;29;20276;-83
2021/05/01 04:52:36;;;;;;;46.92;35.53;;;8.50;99.90;;;;;;4943539;29;20222;-83
2021/05/01 04:55:10;;;;;;;40.95;31.98;;;8.50;99.90;;;;;;4943522;29;20210;-83
2021/05/01 04:57:36;;;;;;;44.92;33.03;;;8.60;99.90;;;;;;4944104;29;20217;-83
2021/05/01 05:00:04;;;;;;;38.65;29.92;;;8.60;99.90;;;;;;4943892;29;20199;-83
2021/05/01 05:02:30;;;;;;;46.35;32.58;;;8.60;99.90;;;;;;4950885;29;20245;-83
2021/05/01 05:04:57;;;;;;;45.03;33.30;;;8.50;99.90;;;;;;4951812;29;20220;-82
2021/05/01 05:07:23;;;;;;;47.03;33.28;;;8.50;99.90;;;;;;4943662;29;20210;-83
2021/05/01 05:09:50;;;;;;;45.80;33.67;;;8.50;99.90;;;;;;4944355;29;20252;-84
2021/05/01 05:12:16;;;;;;;44.17;33.05;;;8.50;99.90;;;;;;4943365;29;20218;-83
2021/05/01 05:14:42;;;;;;;44.80;33.70;;;8.50;99.90;;;;;;4943116;29;20209;-83
2021/05/01 05:17:08;;;;;;;45.90;33.63;;;8.50;99.90;;;;;;4944110;29;20206;-83
2021/05/01 05:19:34;;;;;;;43.95;32.80;;;8.50;99.90;;;;;;4943517;29;20217;-83
2021/05/01 05:22:01;;;;;;;45.13;31.48;;;8.50;99.90;;;;;;4944059;29;20241;-82
2021/05/01 05:24:28;;;;;;;45.95;31.30;;;8.60;99.90;;;;;;4943580;29;20233;-83
2021/05/01 05:26:54;;;;;;;41.70;31.85;;;8.60;99.90;;;;;;4943537;29;20622;-84
2021/05/01 05:29:20;;;;;;;41.88;31.83;;;8.60;99.90;;;;;;4942997;29;20216;-83
2021/05/01 05:31:46;;;;;;;39.35;33.63;;;8.60;99.90;;;;;;4951660;29;20213;-80
2021/05/01 05:34:13;;;;;;;39.58;29.30;;;8.70;99.90;;;;;;4958701;29;20223;-79
2021/05/01 05:36:40;;;;;;;45.70;31.25;;;8.70;99.90;;;;;;4959336;29;20202;-80
2021/05/01 05:39:10;;;;;;;39.38;30.17;;;8.70;99.90;;;;;;4959554;28;20196;-80
2021/05/01 05:41:36;;;;;;;39.45;29.90;;;8.90;99.90;;;;;;4958542;28;20257;-79
2021/05/01 05:44:04;;;;;;;41.60;32.03;;;8.90;99.90;;;;;;4955450;29;20239;-80
2021/05/01 05:46:30;;;;;;;40.33;29.98;;;9.10;99.90;;;;;;4954307;29;20213;-82
2021/05/01 05:48:57;;;;;;;36.78;29.85;;;9.10;99.90;;;;;;4954243;29;20210;-81
2021/05/01 05:51:23;;;;;;;38.95;28.63;;;9.20;99.90;;;;;;4953767;29;20209;-80
2021/05/01 05:53:49;;;;;;;43.83;29.33;;;9.20;99.90;;;;;;4953950;29;20241;-81
2021/05/01 05:56:17;;;;;;;38.95;29.70;;;9.40;99.90;;;;;;4953449;29;20238;-80
2021/05/01 05:58:43;;;;;;;34.70;27.60;;;9.40;99.90;;;;;;4953908;29;20209;-81
2021/05/01 06:01:11;;;;;;;30.13;25.40;;;9.50;99.90;;;;;;4953251;29;20482;-81
2021/05/01 06:03:39;;;;;;;33.50;26.13;;;9.60;99.90;;;;;;4953865;29;20223;-80
2021/05/01 06:06:09;;;;;;;30.65;24.95;;;9.70;99.90;;;;;;4954756;29;20215;-81
2021/05/01 06:08:37;;;;;;;27.70;22.20;;;9.70;99.90;;;;;;4954421;29;20265;-82
2021/05/01 06:11:04;;;;;;;26.47;21.90;;;9.70;99.90;;;;;;4949211;29;20451;-83
2021/05/01 06:13:33;;;;;;;31.00;26.07;;;9.80;99.90;;;;;;4941497;29;20470;-83
2021/05/01 06:16:01;;;;;;;27.00;24.03;;;9.80;99.90;;;;;;4941064;29;20455;-83
2021/05/01 06:18:33;;;;;;;37.33;25.17;;;9.80;99.90;;;;;;4941078;29;20814;-83
2021/05/01 06:20:59;;;;;;;34.07;25.13;;;9.80;99.90;;;;;;4941445;29;20215;-83
2021/05/01 06:23:25;;;;;;;33.83;24.63;;;9.70;99.90;;;;;;4940321;29;20502;-83
2021/05/01 06:25:52;;;;;;;29.70;24.07;;;9.70;99.90;;;;;;4941083;29;21095;-82
2021/05/01 06:28:18;;;;;;;27.23;23.38;;;9.70;99.90;;;;;;4940337;29;20451;-83
2021/05/01 06:30:46;;;;;;;26.10;22.67;;;9.70;99.90;;;;;;4940719;29;20212;-83
2021/05/01 06:33:15;;;;;;;35.43;24.90;;;9.80;99.90;;;;;;4939938;29;20553;-82
2021/05/01 06:35:43;;;;;;;32.73;25.60;;;9.80;99.90;;;;;;4940628;29;20461;-83
2021/05/01 06:38:10;;;;;;;27.73;22.83;;;9.80;99.90;;;;;;4940550;29;20502;-83
2021/05/01 06:40:39;;;;;;;28.83;20.73;;;9.80;99.90;;;;;;4940298;29;20832;-82
2021/05/01 06:43:12;;;;;;;28.13;21.80;;;9.80;99.90;;;;;;4942790;29;20241;-83
2021/05/01 06:45:40;;;;;;;29.77;22.67;;;9.80;99.90;;;;;;4944078;29;20467;-83
2021/05/01 06:48:11;;;;;;;28.50;25.40;;;9.80;99.90;;;;;;4943619;29;20215;-83
2021/05/01 06:50:40;;;;;;;27.38;24.50;;;9.80;99.90;;;;;;4943746;29;20794;-83
2021/05/01 06:53:06;;;;;;;27.60;19.70;;;9.80;99.90;;;;;;4942960;29;20234;-83
2021/05/01 06:55:33;;;;;;;26.75;22.75;;;9.70;99.90;;;;;;4943624;29;20453;-82
2021/05/01 06:58:02;;;;;;;26.83;21.85;;;9.70;99.90;;;;;;4943920;29;20215;-83
2021/05/01 07:00:29;;;;;;;28.27;21.38;;;9.70;99.90;;;;;;4943816;29;20593;-83
2021/05/01 07:03:03;;;;;;;26.35;22.20;;;9.70;99.90;;;;;;4943281;29;20799;-83
2021/05/01 07:05:30;;;;;;;24.33;21.03;;;9.70;99.90;;;;;;4943840;29;20216;-83
2021/05/01 07:07:57;;;;;;;38.23;27.37;;;9.70;99.90;;;;;;4945317;29;20459;-82
2021/05/01 07:10:24;;;;;;;34.93;27.83;;;9.70;99.90;;;;;;4944225;29;20463;-83
2021/05/01 07:12:50;;;;;;;35.45;26.83;;;9.50;99.90;;;;;;4944769;29;20474;-83
2021/05/01 07:15:18;;;;;;;32.07;26.73;;;9.40;99.90;;;;;;4944459;29;20214;-83
2021/05/01 07:17:45;;;;;;;35.17;26.27;;;9.40;99.90;;;;;;4944905;29;20452;-83
2021/05/01 07:20:13;;;;;;;30.58;25.52;;;9.40;99.90;;;;;;4944590;29;20304;-83
2021/05/01 07:22:41;;;;;;;28.05;24.38;;;9.40;99.90;;;;;;4944836;29;20734;-82
2021/05/01 07:25:10;;;;;;;28.90;23.88;;;9.40;99.90;;;;;;4944647;29;20207;-82
2021/05/01 07:27:43;;;;;;;33.50;26.15;;;9.40;99.90;;;;;;4944574;29;20242;-83
2021/05/01 07:30:10;;;;;;;35.58;26.10;;;9.40;99.90;;;;;;4944269;29;20761;-82
2021/05/01 07:32:41;;;;;;;35.15;26.90;;;9.40;99.90;;;;;;4943745;29;20314;-82
2021/05/01 07:35:08;;;;;;;34.70;26.63;;;9.50;99.90;;;;;;4943809;29;20213;-83
2021/05/01 07:37:37;;;;;;;28.35;23.30;;;9.50;99.90;;;;;;4944417;29;20246;-83
2021/05/01 07:40:10;;;;;;;29.50;24.55;;;9.50;99.90;;;;;;4943557;29;20218;-82
2021/05/01 07:42:38;;;;;;;27.73;24.17;;;9.60;99.90;;;;;;4943070;29;20243;-83
2021/05/01 07:45:06;;;;;;;32.10;25.73;;;9.60;99.90;;;;;;4947026;29;20206;-83
2021/05/01 07:47:34;;;;;;;30.77;24.40;;;9.50;99.90;;;;;;4946499;29;20578;-83
2021/05/01 07:50:02;;;;;;;35.90;26.13;;;9.50;99.90;;;;;;4946075;29;20450;-83
2021/05/01 07:52:31;;;;;;;31.00;25.67;;;9.50;99.90;;;;;;4946212;29;20467;-83
2021/05/01 07:54:57;;;;;;;26.63;23.80;;;9.50;99.90;;;;;;4946485;29;20455;-84
2021/05/01 07:57:24;;;;;;;32.85;25.38;;;9.50;99.90;;;;;;4946316;29;20219;-84
2021/05/01 07:59:51;;;;;;;27.10;23.90;;;9.50;99.90;;;;;;4946494;29;20212;-84
2021/05/01 08:02:17;;;;;;;29.35;23.40;;;9.60;99.90;;;;;;4945908;29;20903;-83
2021/05/01 08:04:43;;;;;;;26.08;22.50;;;9.60;99.90;;;;;;4946309;29;20214;-84
2021/05/01 08:07:10;;;;;;;30.93;25.10;;;9.60;99.90;;;;;;4945621;29;20211;-83
2021/05/01 08:09:36;;;;;;;30.40;23.33;;;9.60;99.90;;;;;;4946288;29;20458;-84
2021/05/01 08:12:03;;;;;;;30.73;25.20;;;9.60;99.90;;;;;;4945716;29;20981;-84
2021/05/01 08:14:30;;;;;;;31.10;25.05;;;9.60;99.90;;;;;;4946339;29;20228;-83
2021/05/01 08:16:56;;;;;;;28.80;24.33;;;9.50;99.90;;;;;;4945517;29;20214;-83
2021/05/01 08:19:22;;;;;;;32.45;23.73;;;9.40;99.90;;;;;;4944783;29;20211;-83
2021/05/01 08:21:48;;;;;;;32.85;25.20;;;9.50;99.90;;;;;;4945614;29;20253;-83
2021/05/01 08:24:15;;;;;;;30.77;24.30;;;9.40;99.90;;;;;;4940808;29;20237;-83
2021/05/01 08:26:41;;;;;;;33.92;25.10;;;9.40;99.90;;;;;;4942711;29;20676;-83
2021/05/01 08:29:07;;;;;;;30.30;23.88;;;9.40;99.90;;;;;;4942337;29;20685;-84
2021/05/01 08:31:34;;;;;;;32.80;24.67;;;9.40;99.90;;;;;;4940955;29;20207;-83
2021/05/01 08:34:00;;;;;;;28.92;24.08;;;9.40;99.90;;;;;;4940703;29;20230;-82
2021/05/01 08:36:27;;;;;;;28.92;24.02;;;9.50;99.90;;;;;;4941331;29;20210;-84
2021/05/01 08:38:54;;;;;;;30.10;24.40;;;9.50;99.90;;;;;;4940557;29;20266;-83
2021/05/01 08:41:21;;;;;;;31.03;24.53;;;9.60;99.90;;;;;;4941073;29;20211;-83
2021/05/01 08:43:47;;;;;;;29.15;24.35;;;9.60;99.90;;;;;;4941583;29;20480;-84
2021/05/01 08:46:14;;;;;;;29.75;24.00;;;9.60;99.90;;;;;;4941734;29;20209;-83
2021/05/01 08:48:46;;;;;;;27.35;22.10;;;9.60;99.90;;;;;;4941942;29;20637;-85
2021/05/01 08:51:15;;;;;;;31.13;25.88;;;9.50;99.90;;;;;;4940404;29;20241;-81
2021/05/01 08:53:41;;;;;;;28.65;24.40;;;9.60;99.90;;;;;;4940648;29;20596;-85
2021/05/01 08:56:07;;;;;;;24.40;21.77;;;9.60;99.90;;;;;;4945472;29;20637;-85
2021/05/01 08:58:36;;;;;;;29.67;25.50;;;9.60;99.90;;;;;;4944745;29;20584;-85
2021/05/01 09:01:08;;;;;;;26.23;20.95;;;9.70;99.90;;;;;;4943703;29;20460;-86
2021/05/01 09:03:37;;;;;;;26.48;23.50;;;9.70;99.90;;;;;;4943463;29;20246;-85
2021/05/01 09:06:09;;;;;;;26.23;21.77;;;9.80;99.90;;;;;;4939151;29;20204;-84
2021/05/01 09:08:44;;;;;;;25.23;19.00;;;9.90;99.90;;;;;;4935707;29;20769;-83
2021/05/01 09:11:10;;;;;;;28.30;20.90;;;9.90;99.90;;;;;;4935765;29;20270;-85
2021/05/01 09:13:47;;;;;;;24.27;21.67;;;10.00;99.90;;;;;;4931427;29;21150;-84
2021/05/01 09:16:16;;;;;;;23.30;20.30;;;10.00;99.90;;;;;;4934645;29;20459;-83
2021/05/01 09:18:47;;;;;;;24.27;19.03;;;10.20;99.90;;;;;;4922633;29;20457;-85
2021/05/01 09:21:16;;;;;;;19.97;17.87;;;10.40;99.90;;;;;;4921275;29;20559;-84
2021/05/01 09:23:44;;;;;;;22.80;20.23;;;10.50;99.90;;;;;;4921711;29;20496;-84
2021/05/01 09:26:13;;;;;;;23.20;19.77;;;10.70;99.90;;;;;;4921549;29;20527;-85
2021/05/01 09:28:48;;;;;;;24.60;20.90;;;10.90;99.90;;;;;;4921239;29;20457;-84
2021/05/01 09:31:27;;;;;;;24.33;19.07;;;11.00;99.90;;;;;;4926239;29;20551;-85
2021/05/01 09:34:52;;;;;;;;;;;;;;;;;;;;;
2021/05/01 09:37:50;;;;;;;22.53;19.80;;;11.40;99.90;;;;;;4875707;29;20578;-84
2021/05/01 09:40:16;;;;;;;21.30;19.13;;;11.50;99.90;;;;;;4940085;29;20465;-85
2021/05/01 09:43:09;;;;;;;20.87;18.70;;;11.60;99.90;;;;;;4940066;29;20497;-84
2021/05/01 09:45:57;;;;;;;19.17;16.50;;;11.70;99.90;;;;;;4940168;29;20456;-86
2021/05/01 09:48:34;;;;;;;18.30;16.03;;;11.80;99.90;;;;;;4940048;29;20556;-84
2021/05/01 09:53:50;;;;;;;18.70;16.77;;;11.90;99.90;;;;;;4901059;29;20483;-84
2021/05/01 09:56:29;;;;;;;20.70;17.47;;;11.90;99.90;;;;;;4940096;29;20578;-84
2021/05/01 09:59:00;;;;;;;18.37;16.40;;;12.10;99.90;;;;;;4939249;29;20445;-85
2021/05/01 10:01:30;;;;;;;18.93;16.07;;;12.10;99.90;;;;;;4940194;29;20460;-83
2021/05/01 10:04:39;;;;;;;19.30;17.27;;;12.00;99.90;;;;;;4941588;29;20484;-86
2021/05/01 10:07:10;;;;;;;19.30;17.30;;;12.10;99.90;;;;;;4941085;29;20452;-87
2021/05/01 10:09:39;;;;;;;21.90;18.73;;;12.40;99.90;;;;;;4942467;29;20808;-85
2021/05/01 10:12:16;;;;;;;18.90;16.90;;;12.70;99.90;;;;;;4941868;29;20458;-85
2021/05/01 10:14:50;;;;;;;19.03;16.73;;;12.90;99.90;;;;;;4941600;29;20449;-85
2021/05/01 10:17:28;;;;;;;19.53;17.53;;;12.90;99.90;;;;;;4943599;29;20453;-87
2021/05/01 10:20:03;;;;;;;18.90;16.53;;;13.00;99.90;;;;;;4946054;29;20532;-88
2021/05/01 10:22:45;;;;;;;21.77;18.00;;;13.00;99.90;;;;;;4945308;29;20560;-85
2021/05/01 10:25:51;;;;;;;;;;;;;;;;;;;;;
2021/05/01 10:29:02;;;;;;;20.73;18.60;;;12.80;99.90;;;;;;4907402;29;20560;-85
2021/05/01 10:31:28;;;;;;;19.73;17.73;;;12.70;99.90;;;;;;4945003;29;20457;-87
2021/05/01 10:34:00;;;;;;;22.67;19.10;;;12.70;99.90;;;;;;4945104;29;20632;-84
2021/05/01 10:36:30;;;;;;;22.13;18.70;;;12.60;99.90;;;;;;4945017;29;20438;-85
2021/05/01 10:39:05;;;;;;;24.10;20.70;;;12.60;99.90;;;;;;4944272;29;20488;-84
2021/05/01 10:41:35;;;;;;;24.30;21.60;;;12.50;99.90;;;;;;4942717;29;20432;-84
2021/05/01 10:44:07;;;;;;;20.90;18.40;;;12.40;99.90;;;;;;4942310;29;20557;-84
2021/05/01 10:46:39;;;;;;;21.43;19.23;;;12.40;99.90;;;;;;4943297;29;20422;-86
2021/05/01 10:49:10;;;;;;;23.60;20.90;;;12.50;99.90;;;;;;4943650;29;20481;-84
2021/05/01 10:51:40;;;;;;;23.70;20.57;;;12.60;99.90;;;;;;4942443;29;20429;-87
2021/05/01 10:54:08;;;;;;;20.70;18.70;;;12.50;99.90;;;;;;4942705;29;20471;-86
2021/05/01 10:56:43;;;;;;;28.53;21.83;;;12.50;99.90;;;;;;4942494;29;20469;-86
2021/05/01 10:59:13;;;;;;;23.53;19.27;;;12.50;99.90;;;;;;4943184;29;20547;-86
2021/05/01 11:13:52;;;;;;;25.30;20.57;;;12.00;99.90;;;;;;4882272;29;20488;-85
2021/05/01 11:16:32;;;;;;;23.90;19.47;;;12.00;99.90;;;;;;4944314;29;20472;-86
2021/05/01 11:19:38;;;;;;;24.47;21.10;;;12.00;99.90;;;;;;4942677;29;20494;-86
2021/05/01 11:22:56;;;;;;;25.10;22.17;;;12.00;99.90;;;;;;4944629;29;20564;-85
2021/05/01 11:28:39;;;;;;;22.17;19.77;;;12.30;99.90;;;;;;4938921;29;20448;-87
2021/05/01 11:31:10;;;;;;;25.63;20.97;;;12.50;99.90;;;;;;4938766;29;20461;-89
2021/05/01 11:45:51;;;;;;;25.17;22.57;;;12.80;99.90;;;;;;4833199;29;20827;-87
2021/05/01 11:51:46;;;;;;;31.03;25.50;;;12.90;99.90;;;;;;4834903;29;20553;-84
2021/05/01 12:01:31;;;;;;;27.67;24.20;;;12.60;99.90;;;;;;4819826;29;20510;-84
2021/05/01 12:04:13;;;;;;;;;;;;;;;;;;;;;
2021/05/01 12:06:46;;;;;;;29.00;25.90;;;12.80;99.90;;;;;;4929522;29;20488;-84
2021/05/01 12:09:15;;;;;;;27.77;24.77;;;13.10;99.90;;;;;;4931920;29;20454;-83
2021/05/01 12:12:03;;;;;;;28.73;25.77;;;13.10;99.90;;;;;;4933476;29;20472;-86
2021/05/01 12:14:39;;;;;;;26.33;23.40;;;13.00;99.90;;;;;;4930965;29;20542;-86
2021/05/01 12:17:13;;;;;;;26.23;22.87;;;13.00;99.90;;;;;;4927627;29;20457;-87
2021/05/01 12:20:19;;;;;;;23.53;20.63;;;12.90;99.90;;;;;;4928022;29;20493;-84
2021/05/01 12:28:52;;;;;;;23.60;20.90;;;12.80;99.90;;;;;;4920886;29;20390;-86
2021/05/01 12:32:02;;;;;;;24.90;22.10;;;12.50;99.90;;;;;;4920770;29;20982;-86
2021/05/01 12:35:04;;;;;;;28.90;23.90;;;12.40;99.90;;;;;;4901646;29;20482;-86
2021/05/01 12:38:14;;;;;;;25.20;22.50;;;12.10;99.90;;;;;;4901589;29;20964;-86
2021/05/01 12:41:13;;;;;;;26.30;23.47;;;11.90;99.90;;;;;;4898018;29;20448;-84
2021/05/01 14:26:28;;;;;;;31.85;25.08;;;10.50;99.90;;;;;;5339998;23;20514;-85
2021/05/01 14:29:06;;;;;;;30.80;27.30;;;10.20;99.90;;;;;;4940044;29;20212;-84
2021/05/01 14:31:32;;;;;;;29.80;25.93;;;10.20;99.90;;;;;;4941662;29;20468;-84
2021/05/01 14:33:59;;;;;;;33.77;27.40;;;10.20;99.90;;;;;;4941719;29;21035;-82
2021/05/01 14:36:27;;;;;;;35.80;27.88;;;10.20;99.90;;;;;;4938331;29;20475;-83
2021/05/01 14:38:54;;;;;;;31.67;26.77;;;10.30;99.90;;;;;;4941392;29;20214;-82
2021/05/01 14:41:23;;;;;;;32.40;26.70;;;10.30;99.90;;;;;;4940389;29;20512;-81
2021/05/01 14:43:51;;;;;;;35.03;28.10;;;10.20;99.90;;;;;;4940882;29;20493;-80
2021/05/01 14:46:19;;;;;;;30.55;27.30;;;10.20;99.90;;;;;;4943164;29;20462;-81
2021/05/01 14:49:21;;;;;;;34.70;26.80;;;10.30;99.90;;;;;;4940476;29;20446;-81
2021/05/01 14:51:55;;;;;;;30.80;26.83;;;10.40;99.90;;;;;;4899731;29;20508;-82
2021/05/01 14:54:24;;;;;;;32.67;26.27;;;10.30;99.90;;;;;;4899330;29;20489;-84
2021/05/01 14:57:04;;;;;;;34.23;26.73;;;10.10;99.90;;;;;;4921340;29;20517;-82
2021/05/01 14:59:37;;;;;;;33.28;27.42;;;10.30;99.90;;;;;;4939726;29;20474;-82
2021/05/01 15:02:22;;;;;;;34.58;27.75;;;10.30;99.90;;;;;;4939240;29;20677;-82
2021/05/01 15:05:11;;;;;;;34.40;28.15;;;10.10;99.90;;;;;;4940126;29;20262;-82
2021/05/01 15:07:39;;;;;;;29.55;24.40;;;10.20;99.90;;;;;;4939935;29;20199;-82
2021/05/01 15:10:14;;;;;;;31.20;26.75;;;10.10;99.90;;;;;;4940206;29;20218;-86
2021/05/01 15:12:57;;;;;;;35.10;29.03;;;10.00;99.90;;;;;;4941315;29;20231;-82
2021/05/01 15:15:35;;;;;;;33.70;29.10;;;10.10;99.90;;;;;;4941452;29;20452;-83
2021/05/01 15:18:02;;;;;;;37.30;28.23;;;10.00;99.90;;;;;;4939942;29;20965;-83
2021/05/01 16:10:36;;;;;;;39.50;32.43;;;10.10;99.90;;;;;;4956125;28;20486;-82
2021/05/01 16:13:31;;;;;;;36.78;30.42;;;10.10;99.90;;;;;;4948111;28;20483;-82